Latest Weather Observations for Warrnambool

IDV60801

Issued at 11:32 am EDT Wednesday 10 February 2016 (issued every 30 minutes, with the page automatically refreshed every 10 minutes)

About weather observations | Map of weather stations | Latest weather observations for VIC | Other Formats
Station Details ID: 090186 Name: WARRNAMBOOL AIRPORT NDB Lat: -38.29 Lon: 142.45 Height: 70.8 m
Data from the previous 72 hours. | See also: Recent months at Warrnambool
Date/Time
EDT
Temp
°C
App
Temp
°C
Dew
Point
Rel
Hum
%
Delta-T
°C
Wind Press
QNH
hPa
Press
MSL
hPa
Rain
since 9 am
mm
Dir
 
Spd
km/h
Gust
km/h
Spd
kts
Gust
kts
10/11:30am 20.2 18.2 13.9 67 3.6 S 17 26 9 14 1017.2 1017.0 0.0
10/11:00am 19.7 18.0 13.6 68 3.5 S 15 24 8 13 1017.4 1017.2 0.0
10/10:30am 19.1 17.9 13.9 72 3.0 S 13 20 7 11 1017.5 1017.3 0.0
10/10:00am 18.8 16.7 13.6 72 3.0 S 17 22 9 12 1017.5 1017.3 0.0
10/09:30am 18.3 16.3 13.8 75 2.6 SSE 17 22 9 12 1017.3 1017.1 0.0
10/09:00am 16.7 16.1 13.6 82 1.7 SSE 9 15 5 8 1017.2 1017.0 0.0
10/08:30am 14.9 16.1 14.9 100 0.0 NNE 2 6 1 3 1016.7 1016.5 0.0
10/08:00am 13.4 13.7 13.4 100 0.0 N 4 6 2 3 1016.6 1016.4 0.0
10/07:30am 10.3 9.3 10.3 100 0.0 N 6 7 3 4 1016.3 1016.1 0.0
10/07:00am 8.6 7.0 8.6 100 0.0 N 7 9 4 5 1016.0 1015.8 0.0
10/06:30am 9.1 8.9 9.1 100 0.0 CALM 0 0 0 0 1016.1 1015.9 0.0
10/06:00am 11.3 11.7 11.3 100 0.0 CALM 0 0 0 0 1016.0 1015.8 0.0
10/05:30am 10.1 10.2 10.1 100 0.0 CALM 0 0 0 0 1015.9 1015.7 0.0
10/05:13am 11.1 11.5 11.1 100 0.0 CALM 0 0 0 0 1015.9 1015.7 0.0
10/05:00am 11.0 11.3 11.0 100 0.0 CALM 0 0 0 0 1015.9 1015.7 0.0
10/04:54am 9.9 9.9 9.9 100 0.0 CALM 0 0 0 0 1015.9 1015.7 0.0
10/04:30am 11.2 10.8 11.2 100 0.0 SW 4 6 2 3 1015.8 1015.6 0.0
10/04:00am 9.5 8.1 9.4 99 0.0 S 7 9 4 5 1015.8 1015.6 0.0
10/03:55am 10.2 9.5 10.2 100 0.0 S 4 9 2 5 1015.8 1015.6 0.0
10/03:36am 9.8 9.6 9.2 96 0.3 CALM 0 0 0 0 1015.9 1015.7 0.0
10/03:30am 11.6 12.0 11.4 99 0.1 CALM 0 0 0 0 1016.1 1015.9 0.0
10/03:00am 13.1 12.9 12.9 99 0.1 SSE 6 9 3 5 1016.3 1016.1 0.0
10/02:30am 13.5 13.4 13.2 98 0.2 SE 6 7 3 4 1016.9 1016.7 0.0
10/02:00am 13.2 12.4 13.0 99 0.1 S 9 11 5 6 1017.3 1017.1 0.0
10/01:30am 12.6 12.0 12.4 99 0.1 SSE 7 9 4 5 1017.3 1017.1 0.0
10/01:00am 12.3 11.2 12.0 98 0.2 SSE 9 11 5 6 1017.5 1017.3 0.0
10/12:30am 12.2 11.0 11.7 97 0.3 SSE 9 9 5 5 1017.6 1017.4 0.0
10/12:00am 12.7 12.1 12.2 97 0.3 SSE 7 7 4 4 1017.9 1017.7 0.0
 
Date/Time
EDT
Temp
°C
App
Temp
°C
Dew
Point
Rel
Hum
%
Delta-T
°C
Wind Press
QNH
hPa
Press
MSL
hPa
Rain
since 9 am
mm
Dir
 
Spd
km/h
Gust
km/h
Spd
kts
Gust
kts
09/11:30pm 13.3 13.0 12.7 96 0.3 SSE 6 7 3 4 1018.3 1018.1 0.0
09/11:00pm 13.9 12.7 12.8 93 0.6 SSE 11 15 6 8 1018.4 1018.2 0.0
09/10:30pm 14.4 12.9 13.1 92 0.7 SSE 13 15 7 8 1018.4 1018.2 0.0
09/10:00pm 14.6 13.1 13.1 91 0.8 S 13 17 7 9 1018.4 1018.2 0.0
09/09:30pm 15.3 13.1 13.3 88 1.1 S 17 19 9 10 1018.4 1018.2 0.0
09/09:00pm 16.1 13.9 13.2 83 1.6 S 17 20 9 11 1018.5 1018.3 0.0
09/08:30pm 16.9 14.0 13.0 78 2.2 S 20 24 11 13 1018.5 1018.3 0.0
09/08:00pm 18.0 15.2 13.1 73 2.8 SSE 20 26 11 14 1018.6 1018.4 0.0
09/07:30pm 18.8 15.3 13.4 71 3.1 S 24 30 13 16 1018.6 1018.4 0.0
09/07:00pm 19.4 15.5 13.3 68 3.5 SSE 26 32 14 17 1018.4 1018.2 0.0
09/06:30pm 20.0 16.4 13.2 65 3.9 SSE 24 30 13 16 1018.3 1018.1 0.0
09/06:00pm 20.6 17.2 13.8 65 3.9 SSE 24 32 13 17 1018.3 1018.1 0.0
09/05:30pm 21.0 17.4 13.2 61 4.5 SSE 24 33 13 18 1018.6 1018.4 0.0
09/05:00pm 21.3 17.7 13.2 60 4.6 S 24 32 13 17 1018.8 1018.6 0.0
09/04:30pm 22.1 19.0 13.5 58 5.0 S 22 32 12 17 1018.9 1018.7 0.0
09/04:00pm 22.2 18.7 13.5 57 5.0 S 24 30 13 16 1019.2 1019.0 0.0
09/03:30pm 21.9 18.8 13.5 59 4.9 SSE 22 30 12 16 1019.5 1019.3 0.0
09/03:00pm 22.2 18.6 14.1 60 4.7 S 26 35 14 19 1019.7 1019.5 0.0
09/02:30pm 21.9 18.4 13.3 58 5.0 S 24 35 13 19 1020.1 1019.9 0.0
09/02:00pm 21.7 18.6 13.3 59 4.8 S 22 30 12 16 1020.3 1020.1 0.0
09/01:30pm 21.6 18.4 13.2 59 4.8 S 22 32 12 17 1020.5 1020.3 0.0
09/01:00pm 22.5 20.1 14.4 60 4.8 SSE 20 30 11 16 1020.7 1020.5 0.0
09/12:30pm 21.3 19.2 13.5 61 4.5 SE 17 28 9 15 1021.1 1020.9 0.0
09/12:00pm 20.9 18.6 13.1 61 4.4 SSE 17 32 9 17 1021.5 1021.3 0.0
09/11:30am 21.0 18.2 13.2 61 4.5 S 20 28 11 15 1021.7 1021.5 0.0
09/11:00am 20.1 18.2 13.1 64 4.0 SSE 15 24 8 13 1021.9 1021.7 0.0
09/10:30am 19.4 17.1 12.9 66 3.7 SSE 17 28 9 15 1022.1 1021.9 0.0
09/10:00am 18.1 17.2 13.8 76 2.4 ESE 11 19 6 10 1022.4 1022.2 0.0
09/09:30am 17.9 16.8 13.2 74 2.7 E 11 15 6 8 1022.6 1022.5 0.0
09/09:00am 17.2 16.2 13.5 79 2.1 SE 11 15 6 8 1022.7 1022.6 0.0
09/08:30am 16.5 16.2 13.4 82 1.7 E 7 11 4 6 1022.7 1022.6 0.0
09/08:00am 15.8 16.7 12.9 83 1.6 CALM 0 7 0 4 1022.6 1022.5 0.0
09/07:30am 15.7 15.6 13.2 85 1.4 E 6 9 3 5 1022.5 1022.4 0.0
09/07:00am 15.7 14.6 13.0 84 1.5 ESE 11 15 6 8 1022.4 1022.2 0.0
09/06:30am 15.4 13.8 12.9 85 1.4 SE 13 17 7 9 1022.2 1022.0 0.0
09/06:00am 15.1 14.3 13.0 87 1.2 SE 9 13 5 7 1022.0 1021.8 0.0
09/05:30am 14.8 14.4 13.0 89 1.0 ESE 7 9 4 5 1021.9 1021.7 0.0
09/05:00am 14.7 14.3 13.1 90 0.9 ESE 7 9 4 5 1021.7 1021.5 0.0
09/04:30am 14.2 13.7 12.8 91 0.8 SE 7 9 4 5 1021.8 1021.6 0.0
09/04:00am 14.3 13.8 12.5 89 1.0 ESE 7 7 4 4 1022.0 1021.8 0.0
09/03:30am 14.4 13.6 12.8 90 0.9 SE 9 13 5 7 1022.1 1021.9 0.0
09/03:00am 13.4 12.7 12.1 92 0.7 SE 7 9 4 5 1022.4 1022.2 0.0
09/02:30am 12.6 11.6 11.0 90 0.8 SE 7 9 4 5 1022.8 1022.7 0.0
09/02:00am 14.0 12.6 12.2 89 1.0 SE 11 13 6 7 1022.9 1022.8 0.0
09/01:30am 14.4 12.7 12.4 88 1.1 SSE 13 15 7 8 1023.1 1023.0 0.0
09/01:00am 14.8 13.2 12.8 88 1.1 SSE 13 15 7 8 1023.5 1023.4 0.0
09/12:30am 14.6 12.5 12.3 86 1.3 SSE 15 17 8 9 1023.6 1023.5 0.0
09/12:00am 15.5 12.8 12.8 84 1.5 SSE 19 22 10 12 1023.6 1023.5 0.0
 
Date/Time
EDT
Temp
°C
App
Temp
°C
Dew
Point
Rel
Hum
%
Delta-T
°C
Wind Press
QNH
hPa
Press
MSL
hPa
Rain
since 9 am
mm
Dir
 
Spd
km/h
Gust
km/h
Spd
kts
Gust
kts
08/11:30pm 15.5 12.6 12.4 82 1.7 SSE 19 26 10 14 1023.9 1023.8 0.0
08/11:00pm 15.8 13.1 12.9 83 1.6 S 19 22 10 12 1024.1 1024.0 0.0
08/10:30pm 16.4 13.5 12.9 80 2.0 SSE 20 30 11 16 1024.2 1024.1 0.0
08/10:00pm 16.8 14.0 13.3 80 2.0 S 20 26 11 14 1024.2 1024.1 0.0
08/09:30pm 16.8 14.2 13.7 82 1.8 S 20 26 11 14 1024.0 1023.9 0.0
08/09:00pm 17.2 14.4 14.3 83 1.7 S 22 28 12 15 1023.8 1023.7 0.0
08/08:30pm 17.9 14.7 14.2 79 2.1 SSE 24 30 13 16 1023.6 1023.5 0.0
08/08:00pm 18.5 15.0 14.6 78 2.3 SSE 26 33 14 18 1023.3 1023.2 0.0
08/07:30pm 19.0 15.3 13.8 72 3.0 S 26 33 14 18 1023.2 1023.1 0.0
08/07:00pm 19.6 16.1 13.5 68 3.5 S 24 32 13 17 1022.9 1022.8 0.0
08/06:30pm 20.6 17.2 13.8 65 3.9 S 24 39 13 21 1022.8 1022.7 0.0
08/06:00pm 21.8 17.8 14.2 62 4.4 S 28 35 15 19 1022.8 1022.7 0.0
08/05:30pm 21.0 16.9 13.7 63 4.2 S 28 37 15 20 1022.9 1022.8 0.0
08/05:00pm 21.5 17.4 13.7 61 4.5 S 28 37 15 20 1023.1 1023.0 0.0
08/04:30pm 21.3 17.5 13.5 61 4.5 SSW 26 37 14 20 1023.2 1023.1 0.0
08/04:00pm 21.7 17.5 13.6 60 4.7 S 28 39 15 21 1023.2 1023.1 0.0
08/03:30pm 21.5 16.6 12.6 57 5.1 S 30 43 16 23 1023.2 1023.1 0.0
08/03:00pm 21.9 17.5 13.0 57 5.1 S 28 41 15 22 1023.3 1023.2 0.0
08/02:30pm 21.7 18.0 12.8 57 5.1 S 24 35 13 19 1023.5 1023.4 0.0
08/02:00pm 21.5 17.6 13.2 59 4.7 S 26 35 14 19 1023.7 1023.6 0.0
08/01:30pm 22.1 17.6 13.7 59 4.9 SSW 30 39 16 21 1023.9 1023.8 0.0
08/01:00pm 20.8 16.4 13.0 61 4.4 S 28 39 15 21 1024.0 1023.9 0.0
08/12:30pm 21.1 16.7 13.0 60 4.6 SSE 28 39 15 21 1024.0 1023.9 0.0
08/12:00pm 20.5 16.8 12.7 61 4.4 S 24 33 13 18 1024.0 1023.9 0.0
08/11:30am 20.0 16.8 13.2 65 3.9 S 22 28 12 15 1024.1 1024.0 0.0
08/11:00am 19.3 16.0 12.8 66 3.7 S 22 28 12 15 1024.0 1023.9 0.0
08/10:30am 18.8 16.1 12.8 68 3.4 SSW 19 24 10 13 1024.1 1024.0 0.0
08/10:00am 18.8 15.3 12.3 66 3.6 S 22 30 12 16 1024.0 1023.9 0.0
08/09:30am 18.4 15.7 12.8 70 3.1 S 19 28 10 15 1023.9 1023.8 0.0
08/09:00am 17.8 15.5 12.9 73 2.7 SSE 17 22 9 12 1023.6 1023.5 0.2
08/08:30am 17.1 14.2 12.4 74 2.6 S 19 24 10 13 1023.3 1023.2 0.2
08/08:00am 16.9 14.9 12.6 76 2.4 SSW 15 20 8 11 1023.0 1022.9 0.2
08/07:30am 16.6 14.6 12.8 78 2.1 S 15 24 8 13 1022.6 1022.5 0.2
08/07:00am 16.5 14.1 12.8 79 2.1 S 17 22 9 12 1022.4 1022.2 0.2
08/06:30am 16.4 14.7 12.6 78 2.1 SSE 13 19 7 10 1022.1 1021.9 0.2
08/06:00am 16.4 14.8 12.8 79 2.0 S 13 20 7 11 1021.7 1021.5 0.2
08/05:30am 16.3 13.5 12.7 79 2.0 S 19 24 10 13 1021.5 1021.3 0.2
08/05:00am 16.5 15.0 13.2 81 1.8 S 13 17 7 9 1021.4 1021.2 0.2
08/04:30am 16.6 14.7 13.1 80 2.0 S 15 22 8 12 1021.4 1021.2 0.2
08/04:00am 16.5 15.1 13.4 82 1.7 S 13 20 7 11 1021.3 1021.1 0.2
08/03:30am 16.5 14.9 13.8 84 1.5 S 15 20 8 11 1021.3 1021.1 0.2
08/03:00am 16.1 14.8 13.6 85 1.4 S 13 20 7 11 1021.3 1021.1 0.2
08/02:30am 16.3 14.2 13.6 84 1.5 S 17 22 9 12 1021.4 1021.2 0.2
08/02:00am 16.0 15.0 14.5 91 0.9 S 13 17 7 9 1021.5 1021.3 0.2
08/01:30am 15.8 15.1 15.3 97 0.3 SSW 13 15 7 8 1021.7 1021.5 0.2
08/01:00am 15.6 15.1 15.0 96 0.3 SSW 11 13 6 7 1021.7 1021.5 0.2
08/12:30am 15.4 14.7 15.4 100 0.0 SSW 13 15 7 8 1021.7 1021.5 0.2
08/12:08am 15.3 14.5 15.0 98 0.2 SSW 13 15 7 8 1021.7 1021.5 0.2
08/12:00am 15.5 14.7 15.0 97 0.3 SSW 13 19 7 10 1021.7 1021.5 0.2
 
Date/Time
EDT
Temp
°C
App
Temp
°C
Dew
Point
Rel
Hum
%
Delta-T
°C
Wind Press
QNH
hPa
Press
MSL
hPa
Rain
since 9 am
mm
Dir
 
Spd
km/h
Gust
km/h
Spd
kts
Gust
kts
07/11:48pm 15.9 14.8 15.4 97 0.3 SSW 15 19 8 10 1021.8 1021.6 0.2
07/11:30pm 15.6 14.5 15.3 98 0.2 SSW 15 17 8 9 1021.7 1021.5 0.2
07/11:00pm 16.3 15.7 15.7 96 0.4 SSW 13 17 7 9 1021.4 1021.2 0.2
07/10:30pm 16.1 14.7 15.5 96 0.4 S 17 20 9 11 1021.0 1020.8 0.2
07/10:00pm 16.3 15.3 15.5 95 0.5 S 15 20 8 11 1020.7 1020.5 0.2
07/09:30pm 17.0 14.8 16.0 94 0.6 SSW 22 26 12 14 1020.5 1020.3 0.2
07/09:00pm 17.2 14.7 16.1 93 0.7 SSW 24 30 13 16 1019.9 1019.7 0.2
07/08:30pm 17.9 15.4 16.1 89 1.1 SSW 24 32 13 17 1019.8 1019.6 0.2
07/08:18pm 18.2 14.8 15.8 86 1.4 SSW 28 33 15 18 1019.6 1019.4 0.2
07/08:00pm 18.7 15.7 15.9 84 1.7 SSW 26 32 14 17 1019.3 1019.1 0.2
07/07:53pm 19.0 16.1 16.0 83 1.8 S 26 33 14 18 1019.2 1019.0 0.2
07/07:30pm 19.1 15.9 15.2 78 2.3 S 26 33 14 18 1019.0 1018.8 0.2
07/07:00pm 19.9 16.8 15.5 76 2.6 S 26 30 14 16 1018.7 1018.5 0.2
07/06:30pm 20.8 18.3 16.2 75 2.8 S 24 30 13 16 1018.5 1018.3 0.2
07/06:00pm 20.7 17.4 16.1 75 2.8 SSW 28 35 15 19 1018.7 1018.5 0.2
07/05:30pm 20.7 17.7 15.9 74 2.9 SSW 26 33 14 18 1018.5 1018.3 0.2
07/05:00pm 22.1 19.2 16.1 69 3.6 SSW 26 33 14 18 1018.5 1018.3 0.2
07/04:30pm 21.8 18.8 15.9 69 3.6 SSW 26 32 14 17 1018.4 1018.2 0.2
07/04:00pm 22.2 19.7 16.2 69 3.6 SSW 24 37 13 20 1018.4 1018.2 0.2
07/03:30pm 22.0 19.5 16.1 69 3.6 SSW 24 32 13 17 1018.5 1018.3 0.2
07/03:00pm 22.7 20.3 16.5 68 3.8 S 24 32 13 17 1018.5 1018.3 0.2
07/02:30pm 22.7 21.2 16.7 69 3.7 SSW 20 32 11 17 1018.4 1018.2 0.2
07/02:00pm 22.8 20.8 16.4 67 3.9 SW 22 33 12 18 1018.5 1018.3 0.2
07/01:30pm 22.4 20.4 16.4 69 3.7 SSW 22 33 12 18 1018.5 1018.3 0.2
07/01:00pm 22.8 21.8 16.6 68 3.8 SSW 17 26 9 14 1018.3 1018.1 0.2
07/12:30pm 22.1 21.1 16.6 71 3.4 SSW 17 26 9 14 1018.5 1018.3 0.2
07/12:00pm 22.5 21.0 16.8 70 3.5 SSW 20 33 11 18 1018.6 1018.4 0.2

Other Formats:

Comma delimited format used in spreadsheet applications
http://www.bom.gov.au/fwo/IDV60801/IDV60801.94837.axf

JavaScript Object Notation format (JSON) in row-major order
http://www.bom.gov.au/fwo/IDV60801/IDV60801.94837.json